createdAt,value
2019-03-30T00:01:07.065Z,12.33
2019-03-30T00:06:11.803Z,12.35
2019-03-30T00:11:16.568Z,12.82
2019-03-30T00:16:21.376Z,13.45
2019-03-30T00:21:26.122Z,12.68
2019-03-30T00:26:30.867Z,13.40
2019-03-30T00:31:35.706Z,13.00
2019-03-30T00:36:40.447Z,12.70
2019-03-30T00:41:45.318Z,13.53
2019-03-30T00:46:50.129Z,13.88
2019-03-30T00:51:54.878Z,13.83
2019-03-30T00:56:59.619Z,12.70
2019-03-30T01:02:04.376Z,13.28
2019-03-30T01:07:09.122Z,13.05
2019-03-30T01:12:13.882Z,13.15
2019-03-30T01:17:18.626Z,14.65
2019-03-30T01:22:23.332Z,13.53
2019-03-30T01:27:28.098Z,13.70
2019-03-30T01:32:34.996Z,13.62
2019-03-30T01:37:39.404Z,14.13
2019-03-30T01:42:44.254Z,14.75
2019-03-30T01:47:49.185Z,13.72
2019-03-30T01:52:54.017Z,14.28
2019-03-30T01:57:58.935Z,13.40
2019-03-30T02:03:03.695Z,14.38
2019-03-30T02:08:08.476Z,14.10
2019-03-30T02:13:13.528Z,15.08
2019-03-30T02:18:18.363Z,14.20
2019-03-30T02:23:23.156Z,14.73
2019-03-30T02:28:27.910Z,15.03
2019-03-30T02:33:32.655Z,15.73
2019-03-30T02:38:37.411Z,14.63
2019-03-30T02:43:42.206Z,15.60
2019-03-30T02:48:46.194Z,15.05
2019-03-30T02:53:50.150Z,15.58
2019-03-30T02:58:54.222Z,16.37
2019-03-30T03:03:58.148Z,15.40
2019-03-30T03:09:02.171Z,16.40
2019-03-30T03:14:06.185Z,16.93
2019-03-30T03:19:10.287Z,16.17
2019-03-30T03:24:14.357Z,15.93
2019-03-30T03:29:18.359Z,16.70
2019-03-30T03:34:22.441Z,16.50
2019-03-30T03:39:26.443Z,16.30
2019-03-30T03:44:30.382Z,17.50
2019-03-30T03:49:34.396Z,17.93
2019-03-30T03:54:38.991Z,17.75
2019-03-30T03:59:43.207Z,16.57
2019-03-30T04:04:48.492Z,17.40
2019-03-30T04:09:52.523Z,17.67
2019-03-30T04:14:58.029Z,18.00
2019-03-30T04:20:02.022Z,18.37
2019-03-30T04:25:06.189Z,18.47
2019-03-30T04:30:10.341Z,18.30
2019-03-30T04:35:14.260Z,18.57
2019-03-30T04:40:18.266Z,18.35
2019-03-30T04:45:22.329Z,19.17
2019-03-30T04:50:26.334Z,18.50
2019-03-30T04:55:30.263Z,19.20
2019-03-30T05:00:34.211Z,19.87
2019-03-30T05:05:38.112Z,19.03
2019-03-30T05:10:42.050Z,19.70
2019-03-30T05:15:45.980Z,19.83
2019-03-30T05:20:50.000Z,19.53
2019-03-30T05:25:53.997Z,19.43
2019-03-30T05:30:57.993Z,22.90
2019-03-30T05:36:01.990Z,19.67
2019-03-30T05:41:06.021Z,23.33
2019-03-30T05:46:10.051Z,19.05
2019-03-30T05:51:13.978Z,20.17
2019-03-30T05:56:17.918Z,19.17
2019-03-30T06:01:22.278Z,19.73
2019-03-30T06:06:26.217Z,18.93
2019-03-30T06:11:30.243Z,18.45
2019-03-30T06:16:34.284Z,19.65
2019-03-30T06:21:38.284Z,20.57
2019-03-30T06:26:42.305Z,21.23
2019-03-30T06:31:47.196Z,21.52
2019-03-30T06:36:52.460Z,22.30
2019-03-30T06:41:57.221Z,22.27
2019-03-30T06:47:02.417Z,22.25
2019-03-30T06:52:07.306Z,22.22
2019-03-30T06:57:12.385Z,21.35
2019-03-30T07:02:20.011Z,20.70
2019-03-30T07:07:27.131Z,20.57
2019-03-30T07:12:35.780Z,20.00
2019-03-30T07:17:48.403Z,20.12
2019-03-30T07:22:53.247Z,20.45
2019-03-30T07:27:58.205Z,19.98
2019-03-30T07:33:03.220Z,19.42
2019-03-30T07:38:08.069Z,19.40
2019-03-30T07:46:46.587Z,19.42
2019-03-30T07:51:51.331Z,21.65
2019-03-30T07:57:05.331Z,19.85
2019-03-30T08:02:04.225Z,19.17
2019-03-30T08:07:10.867Z,18.92
2019-03-30T08:17:54.149Z,19.17
2019-03-30T08:22:58.988Z,18.27
2019-03-30T08:28:03.793Z,18.02
2019-03-30T08:33:09.758Z,19.27
2019-03-30T08:38:14.515Z,18.37
2019-03-30T08:43:19.364Z,19.55
2019-03-30T08:48:24.210Z,21.82
2019-03-30T08:53:28.349Z,17.98
2019-03-30T08:58:33.148Z,18.37
2019-03-30T09:03:38.002Z,18.07
2019-03-30T09:08:43.150Z,18.05
2019-03-30T09:13:49.308Z,18.45
2019-03-30T09:18:54.094Z,17.07
2019-03-30T09:24:09.486Z,17.45
2019-03-30T09:29:05.402Z,15.05
2019-03-30T09:34:10.272Z,15.20
2019-03-30T09:39:14.936Z,14.53
2019-03-30T09:44:19.740Z,15.48
2019-03-30T09:49:24.580Z,15.85
2019-03-30T09:54:29.347Z,15.53
2019-03-30T09:59:34.086Z,15.05
2019-03-30T10:04:38.862Z,16.37
2019-03-30T10:09:43.641Z,16.40
2019-03-30T10:14:48.422Z,15.98
2019-03-30T10:20:04.044Z,15.78
2019-03-30T10:24:59.721Z,15.18
2019-03-30T10:30:11.721Z,15.78
2019-03-30T10:35:16.552Z,15.72
2019-03-30T10:40:21.025Z,14.40
2019-03-30T10:45:26.038Z,15.03
2019-03-30T10:50:30.801Z,15.55
2019-03-30T10:55:35.963Z,15.23
2019-03-30T11:00:41.636Z,15.28
2019-03-30T11:05:46.384Z,15.50
2019-03-30T11:10:52.209Z,15.18
2019-03-30T11:15:56.959Z,15.05
2019-03-30T11:21:01.756Z,13.83
2019-03-30T11:26:08.452Z,13.70
2019-03-30T11:31:13.270Z,12.47
2019-03-30T11:36:18.698Z,13.32
2019-03-30T11:41:25.034Z,11.35
2019-03-30T11:46:30.007Z,11.40
2019-03-30T11:51:34.910Z,11.15
2019-03-30T11:56:39.696Z,11.38
2019-03-30T12:01:44.888Z,10.85
2019-03-30T12:06:56.322Z,11.20
2019-03-30T12:12:01.134Z,9.90
2019-03-30T12:17:05.947Z,10.45
2019-03-30T12:22:10.697Z,10.20
2019-03-30T12:27:15.521Z,11.05
2019-03-30T12:32:20.343Z,10.25
2019-03-30T12:37:25.163Z,9.78
2019-03-30T12:42:29.915Z,9.38
2019-03-30T12:47:34.681Z,9.45
2019-03-30T12:52:39.444Z,9.10
2019-03-30T12:57:44.195Z,9.58
2019-03-30T13:02:48.998Z,8.60
2019-03-30T13:07:53.756Z,10.35
2019-03-30T13:12:58.580Z,9.98
2019-03-30T13:18:03.508Z,9.98
2019-03-30T13:23:08.253Z,9.58
2019-03-30T13:28:13.076Z,9.90
2019-03-30T13:33:17.910Z,9.35
2019-03-30T13:38:25.757Z,9.53
2019-03-30T13:43:29.236Z,9.43
2019-03-30T13:48:34.084Z,9.43
2019-03-30T13:53:38.936Z,9.13
2019-03-30T13:58:43.844Z,8.68
2019-03-30T14:03:48.594Z,8.85
2019-03-30T14:08:53.416Z,8.90
2019-03-30T14:13:58.370Z,8.23
2019-03-30T14:19:03.289Z,8.73
2019-03-30T14:24:08.145Z,9.03
2019-03-30T14:29:13.068Z,7.67
2019-03-30T14:34:17.947Z,8.28
2019-03-30T14:39:22.663Z,8.45
2019-03-30T14:44:27.466Z,7.83
2019-03-30T14:49:32.759Z,7.30
2019-03-30T14:54:51.743Z,7.35
2019-03-30T14:59:43.322Z,7.40
2019-03-30T15:04:48.589Z,7.97
2019-03-30T15:09:53.432Z,8.20
2019-03-30T15:14:58.577Z,9.03
2019-03-30T15:20:03.407Z,7.67
2019-03-30T15:25:10.111Z,8.35
2019-03-30T15:30:15.236Z,8.73
2019-03-30T15:35:20.082Z,6.78
2019-03-30T15:40:25.042Z,6.40
2019-03-30T15:45:29.871Z,5.70
2019-03-30T15:53:59.167Z,5.62
2019-03-30T15:59:04.098Z,6.70
2019-03-30T16:04:08.940Z,10.68
2019-03-30T16:09:13.759Z,10.43
2019-03-30T16:14:18.538Z,11.05
2019-03-30T16:19:23.272Z,11.55
2019-03-30T16:24:30.039Z,11.50
2019-03-30T16:29:33.646Z,10.93
2019-03-30T16:34:38.423Z,11.95
2019-03-30T16:39:44.787Z,12.30
2019-03-30T16:44:50.714Z,11.45
2019-03-30T16:49:56.089Z,12.53
2019-03-30T16:55:01.246Z,11.68
2019-03-30T17:00:07.786Z,12.55
2019-03-30T17:05:12.905Z,13.53
2019-03-30T17:10:17.873Z,12.85
2019-03-30T17:15:23.776Z,14.28
2019-03-30T17:20:28.552Z,13.32
2019-03-30T17:25:33.607Z,12.35
2019-03-30T17:30:38.483Z,12.23
2019-03-30T17:35:43.282Z,12.13
2019-03-30T17:40:48.122Z,12.18
2019-03-30T17:45:53.236Z,11.95
2019-03-30T17:50:58.680Z,11.93
2019-03-30T17:56:03.877Z,10.98
2019-03-30T18:01:07.892Z,12.18
2019-03-30T18:06:12.828Z,12.40
2019-03-30T18:11:17.567Z,12.43
2019-03-30T18:16:23.828Z,12.45
2019-03-30T18:21:28.613Z,11.53
2019-03-30T18:26:33.466Z,12.43
2019-03-30T18:31:39.481Z,11.63
2019-03-30T18:36:45.099Z,12.43
2019-03-30T18:41:49.994Z,11.70
2019-03-30T18:46:54.905Z,11.83
2019-03-30T18:52:00.965Z,11.93
2019-03-30T18:57:05.883Z,12.45
2019-03-30T19:02:10.661Z,12.60
2019-03-30T19:07:15.553Z,12.45
2019-03-30T19:12:20.379Z,11.93
2019-03-30T19:17:25.184Z,11.53
2019-03-30T19:22:30.012Z,12.00
2019-03-30T19:27:34.781Z,12.28
2019-03-30T19:32:39.987Z,12.47
2019-03-30T19:37:44.849Z,12.55
2019-03-30T19:42:50.015Z,12.55
2019-03-30T19:47:54.862Z,11.57
2019-03-30T19:52:59.663Z,12.75
2019-03-30T19:58:04.605Z,12.05
2019-03-30T20:03:09.381Z,12.43
2019-03-30T20:08:15.170Z,12.10
2019-03-30T20:13:20.229Z,12.23
2019-03-30T20:20:10.255Z,11.30
2019-03-30T20:25:15.053Z,11.50
2019-03-30T20:30:20.092Z,11.80
2019-03-30T20:35:24.854Z,13.25
2019-03-30T20:40:29.652Z,13.60
2019-03-30T20:45:34.394Z,13.00
2019-03-30T20:50:39.266Z,12.98
2019-03-30T20:55:44.037Z,13.60
2019-03-30T21:00:48.830Z,14.15
2019-03-30T21:36:35.835Z,21.05
2019-03-30T21:41:40.600Z,19.80
2019-03-30T21:46:45.379Z,19.92
2019-03-30T21:51:50.188Z,22.40
2019-03-30T21:56:54.948Z,24.95
2019-03-30T22:01:59.715Z,21.05
2019-03-30T22:07:04.457Z,24.75
2019-03-30T22:12:09.279Z,23.75
2019-03-30T22:17:14.100Z,24.52
2019-03-30T22:22:18.851Z,30.65
2019-03-30T22:27:23.622Z,30.48
2019-03-30T22:32:28.380Z,31.42
2019-03-30T22:37:33.223Z,32.20
2019-03-30T22:42:38.089Z,34.23
2019-03-30T22:47:42.895Z,34.75
2019-03-30T22:52:47.649Z,34.43
2019-03-30T22:57:52.470Z,34.40
2019-03-30T23:02:57.270Z,35.45
2019-03-30T23:08:02.018Z,35.20
2019-03-30T23:13:06.764Z,35.73
2019-03-30T23:18:11.623Z,36.58
2019-03-30T23:23:16.352Z,36.80
2019-03-30T23:28:21.104Z,36.50
2019-03-30T23:33:25.898Z,37.63
2019-03-30T23:38:30.682Z,40.60
2019-03-30T23:43:35.550Z,39.45
2019-03-30T23:48:40.306Z,39.13
2019-03-30T23:53:45.104Z,39.75
2019-03-30T23:58:49.852Z,42.55
